createdAt,value
2019-01-21T00:02:15.908Z,2.91
2019-01-21T00:04:48.874Z,2.89
2019-01-21T00:07:22.083Z,2.95
2019-01-21T00:09:55.804Z,2.97
2019-01-21T00:12:30.947Z,2.97
2019-01-21T00:15:04.455Z,3.04
2019-01-21T00:17:38.120Z,3.06
2019-01-21T00:20:10.934Z,3.10
2019-01-21T00:22:46.163Z,3.14
2019-01-21T00:25:19.708Z,3.19
2019-01-21T00:27:52.982Z,3.13
2019-01-21T00:30:25.777Z,3.15
2019-01-21T00:32:59.039Z,3.21
2019-01-21T00:35:41.467Z,3.25
2019-01-21T00:38:14.942Z,3.36
2019-01-21T00:40:48.454Z,3.16
2019-01-21T00:43:21.799Z,3.16
2019-01-21T00:45:56.201Z,3.13
2019-01-21T00:48:29.359Z,3.32
2019-01-21T00:51:01.200Z,3.21
2019-01-21T00:53:34.517Z,3.24
2019-01-21T00:56:08.100Z,3.16
2019-01-21T00:58:41.003Z,3.26
2019-01-21T01:01:14.066Z,3.30
2019-01-21T01:03:47.263Z,3.33
2019-01-21T01:06:20.911Z,3.29
2019-01-21T01:08:54.094Z,3.31
2019-01-21T01:11:27.461Z,3.25
2019-01-21T01:14:00.602Z,3.24
2019-01-21T01:16:32.921Z,3.28
2019-01-21T01:19:06.661Z,3.29
2019-01-21T01:21:39.853Z,3.20
2019-01-21T01:24:12.059Z,3.16
2019-01-21T01:26:45.374Z,3.17
2019-01-21T01:29:18.480Z,3.20
2019-01-21T01:31:51.707Z,3.15
2019-01-21T01:34:35.151Z,3.17
2019-01-21T01:37:09.785Z,3.22
2019-01-21T01:39:42.411Z,3.09
2019-01-21T01:42:15.873Z,3.03
2019-01-21T01:44:50.345Z,3.01
2019-01-21T01:47:23.485Z,3.01
2019-01-21T01:49:55.402Z,2.98
2019-01-21T01:52:28.977Z,2.94
2019-01-21T01:55:01.589Z,2.89
2019-01-21T01:57:37.213Z,2.97
2019-01-21T02:00:12.431Z,2.99
2019-01-21T02:02:45.727Z,2.95
2019-01-21T02:05:19.379Z,2.94
2019-01-21T02:07:52.667Z,2.90
2019-01-21T02:10:25.878Z,2.93
2019-01-21T02:12:59.339Z,2.84
2019-01-21T02:15:32.714Z,2.99
2019-01-21T02:18:05.468Z,3.01
2019-01-21T02:20:39.161Z,3.03
2019-01-21T02:23:17.455Z,3.01
2019-01-21T02:25:56.625Z,3.05
2019-01-21T02:28:52.572Z,3.07
2019-01-21T02:32:03.964Z,3.04
2019-01-21T02:34:48.678Z,2.95
2019-01-21T02:38:16.427Z,2.91
2019-01-21T02:41:06.963Z,2.85
2019-01-21T02:44:29.992Z,2.74
2019-01-21T02:47:28.529Z,2.79
2019-01-21T02:50:28.292Z,2.80
2019-01-21T02:53:33.724Z,2.78
2019-01-21T02:56:41.783Z,2.74
2019-01-21T02:59:44.640Z,2.73
2019-01-21T03:02:53.090Z,2.68
2019-01-21T03:05:50.082Z,2.64
2019-01-21T03:08:43.129Z,2.62
2019-01-21T03:11:39.892Z,2.61
2019-01-21T03:14:44.489Z,2.62
2019-01-21T03:18:07.801Z,2.61
2019-01-21T03:21:00.114Z,2.60
2019-01-21T03:24:07.150Z,2.66
2019-01-21T03:27:08.459Z,2.64
2019-01-21T03:30:24.331Z,2.63
2019-01-21T03:33:39.833Z,2.61
2019-01-21T03:36:25.701Z,2.59
2019-01-21T03:39:13.169Z,2.59
2019-01-21T03:42:00.359Z,2.60
2019-01-21T03:45:12.318Z,2.58
2019-01-21T03:48:01.268Z,2.57
2019-01-21T03:51:01.075Z,2.57
2019-01-21T03:53:46.128Z,2.57
2019-01-21T03:56:35.040Z,2.58
2019-01-21T03:59:48.875Z,2.60
2019-01-21T04:02:56.891Z,2.61
2019-01-21T04:05:59.873Z,2.63
2019-01-21T04:09:11.933Z,2.64
2019-01-21T04:12:19.287Z,2.68
2019-01-21T04:15:34.097Z,2.67
2019-01-21T04:18:52.828Z,2.68
2019-01-21T04:21:52.446Z,2.68
2019-01-21T04:25:00.336Z,2.69
2019-01-21T04:27:43.042Z,2.63
2019-01-21T04:30:49.858Z,2.65
2019-01-21T04:34:00.451Z,2.52
2019-01-21T04:36:46.649Z,2.58
2019-01-21T04:39:33.564Z,2.61
2019-01-21T04:42:40.225Z,2.58
2019-01-21T04:45:44.205Z,2.61
2019-01-21T04:48:52.289Z,2.57
2019-01-21T04:51:52.227Z,2.70
2019-01-21T04:55:07.385Z,2.70
2019-01-21T04:58:32.609Z,2.84
2019-01-21T05:01:47.478Z,2.76
2019-01-21T05:04:43.950Z,2.75
2019-01-21T05:08:03.130Z,2.79
2019-01-21T05:11:10.368Z,2.76
2019-01-21T05:14:20.832Z,2.91
2019-01-21T05:17:35.039Z,2.85
2019-01-21T05:20:39.955Z,2.78
2019-01-21T05:23:36.695Z,2.91
2019-01-21T05:26:48.050Z,2.97
2019-01-21T05:30:20.326Z,2.93
2019-01-21T05:33:22.495Z,2.66
2019-01-21T05:36:07.667Z,2.79
2019-01-21T05:38:54.055Z,2.84
2019-01-21T05:41:40.039Z,2.85
2019-01-21T05:44:26.577Z,2.90
2019-01-21T05:47:59.490Z,2.89
2019-01-21T05:51:00.749Z,2.83
2019-01-21T05:54:09.338Z,2.87
2019-01-21T05:57:19.859Z,2.93
2019-01-21T06:00:38.305Z,2.93
2019-01-21T06:03:36.576Z,2.96
2019-01-21T06:06:28.707Z,3.01
2019-01-21T06:09:38.796Z,3.04
2019-01-21T06:12:43.125Z,3.10
2019-01-21T06:15:45.184Z,3.07
2019-01-21T06:18:40.571Z,3.02
2019-01-21T06:21:58.249Z,2.98
2019-01-21T06:24:58.496Z,2.96
2019-01-21T06:28:02.656Z,2.84
2019-01-21T06:30:54.756Z,2.86
2019-01-21T06:33:55.311Z,2.83
2019-01-21T06:36:40.478Z,2.79
2019-01-21T06:39:42.829Z,2.83
2019-01-21T06:42:30.263Z,2.83
2019-01-21T06:45:56.919Z,2.82
2019-01-21T06:49:05.035Z,2.91
2019-01-21T06:52:26.194Z,2.98
2019-01-21T06:55:57.861Z,2.96
2019-01-21T06:59:07.171Z,2.92
2019-01-21T07:02:04.077Z,2.86
2019-01-21T07:05:38.884Z,2.88
2019-01-21T07:08:54.825Z,2.95
2019-01-21T07:11:54.210Z,2.95
2019-01-21T07:15:16.365Z,3.05
2019-01-21T07:18:16.247Z,2.99
2019-01-21T07:21:27.246Z,3.02
2019-01-21T07:24:28.078Z,3.09
2019-01-21T07:27:29.390Z,3.15
2019-01-21T07:31:04.373Z,3.25
2019-01-21T07:34:00.144Z,3.29
2019-01-21T07:36:54.511Z,3.41
2019-01-21T07:40:14.750Z,3.42
2019-01-21T07:43:23.076Z,3.45
2019-01-21T07:46:10.614Z,3.57
2019-01-21T07:49:21.195Z,3.62
2019-01-21T07:52:26.846Z,3.69
2019-01-21T07:55:36.976Z,3.60
2019-01-21T07:58:48.536Z,3.67
2019-01-21T08:01:48.284Z,3.59
2019-01-21T08:04:56.336Z,3.51
2019-01-21T08:07:41.468Z,3.53
2019-01-21T08:10:53.778Z,3.52
2019-01-21T08:13:54.668Z,3.68
2019-01-21T08:17:17.174Z,3.69
2019-01-21T08:20:19.402Z,3.73
2019-01-21T08:23:30.246Z,3.94
2019-01-21T08:26:33.540Z,3.84
2019-01-21T08:29:50.528Z,3.88
2019-01-21T08:33:06.039Z,3.93
2019-01-21T08:35:51.168Z,4.00
2019-01-21T08:38:53.444Z,4.10
2019-01-21T08:41:40.088Z,3.97
2019-01-21T08:45:04.596Z,4.03
2019-01-21T08:47:49.990Z,4.04
2019-01-21T08:50:36.368Z,3.96
2019-01-21T08:53:36.511Z,4.03
2019-01-21T08:56:33.871Z,4.03
2019-01-21T08:59:18.152Z,3.98
2019-01-21T09:02:32.658Z,4.13
2019-01-21T09:06:06.864Z,4.16
2019-01-21T09:09:20.038Z,4.07
2019-01-21T09:12:28.404Z,4.17
2019-01-21T09:15:47.003Z,4.09
2019-01-21T09:18:41.568Z,3.97
2019-01-21T09:21:53.822Z,4.11
2019-01-21T09:25:29.768Z,4.22
2019-01-21T09:28:50.116Z,4.22
2019-01-21T09:31:57.954Z,4.11
2019-01-21T09:35:26.229Z,4.07
2019-01-21T09:38:45.759Z,3.96
2019-01-21T09:41:33.347Z,4.15
2019-01-21T09:44:31.407Z,4.02
2019-01-21T09:47:05.961Z,4.09
2019-01-21T09:49:44.077Z,4.21
2019-01-21T09:52:21.749Z,4.28
2019-01-21T09:54:56.954Z,4.31
2019-01-21T09:57:30.301Z,4.41
2019-01-21T10:00:05.431Z,4.40
2019-01-21T10:02:59.316Z,4.49
2019-01-21T10:05:33.200Z,4.57
2019-01-21T10:08:38.296Z,4.42
2019-01-21T10:11:36.515Z,4.53
2019-01-21T10:14:52.899Z,4.52
2019-01-21T10:18:00.430Z,4.43
2019-01-21T10:21:13.458Z,4.33
2019-01-21T10:24:15.998Z,4.27
2019-01-21T10:27:13.260Z,4.33
2019-01-21T10:30:09.867Z,4.23
2019-01-21T10:33:35.569Z,4.41
2019-01-21T10:36:38.047Z,4.49
2019-01-21T10:39:24.098Z,4.48
2019-01-21T10:42:24.464Z,4.34
2019-01-21T10:45:21.018Z,4.37
2019-01-21T10:48:52.421Z,4.40
2019-01-21T10:52:07.844Z,4.43
2019-01-21T10:55:13.949Z,4.49
2019-01-21T10:58:36.512Z,4.49
2019-01-21T11:01:39.148Z,4.48
2019-01-21T11:04:38.094Z,4.43
2019-01-21T11:07:55.782Z,4.66
2019-01-21T11:11:00.527Z,4.43
2019-01-21T11:13:59.671Z,4.50
2019-01-21T11:16:48.539Z,4.65
2019-01-21T11:19:52.759Z,4.82
2019-01-21T11:23:02.901Z,4.87
2019-01-21T11:26:13.114Z,4.79
2019-01-21T11:29:12.899Z,4.88
2019-01-21T11:32:12.535Z,4.99
2019-01-21T11:35:38.539Z,4.78
2019-01-21T11:38:24.129Z,5.05
2019-01-21T11:41:14.951Z,5.10
2019-01-21T11:44:01.455Z,5.21
2019-01-21T11:46:47.745Z,5.28
2019-01-21T11:50:10.617Z,5.37
2019-01-21T11:52:55.165Z,5.46
2019-01-21T11:56:13.423Z,5.39
2019-01-21T11:58:57.541Z,5.38
2019-01-21T12:02:30.270Z,5.54
2019-01-21T12:05:48.619Z,5.41
2019-01-21T12:08:42.542Z,5.55
2019-01-21T12:12:05.479Z,5.59
2019-01-21T12:15:43.069Z,5.64
2019-01-21T12:18:24.839Z,5.29
2019-01-21T12:21:35.312Z,5.52
2019-01-21T12:24:32.013Z,5.39
2019-01-21T12:27:46.063Z,5.41
2019-01-21T12:30:45.508Z,5.35
2019-01-21T12:34:09.590Z,5.27
2019-01-21T12:37:28.684Z,5.13
2019-01-21T12:40:36.504Z,5.03
2019-01-21T12:43:46.326Z,5.10
2019-01-21T12:46:36.647Z,5.18
2019-01-21T12:49:40.462Z,5.16
2019-01-21T12:52:36.766Z,5.08
2019-01-21T12:55:47.810Z,5.08
2019-01-21T12:58:49.649Z,5.26
2019-01-21T13:01:58.333Z,5.26
2019-01-21T13:04:49.569Z,5.22
2019-01-21T13:08:09.138Z,5.12
2019-01-21T13:11:19.790Z,5.10
2019-01-21T13:14:25.667Z,4.75
2019-01-21T13:17:27.095Z,4.71
2019-01-21T13:20:42.033Z,4.77
2019-01-21T13:24:00.726Z,4.77
2019-01-21T13:27:16.427Z,4.75
2019-01-21T13:30:12.993Z,4.80
2019-01-21T13:33:24.095Z,4.84
2019-01-21T13:36:41.973Z,4.84
2019-01-21T13:39:51.620Z,4.87
2019-01-21T13:42:47.816Z,4.90
2019-01-21T13:46:04.518Z,4.86
2019-01-21T13:49:04.123Z,4.88
2019-01-21T13:52:37.001Z,4.91
2019-01-21T13:55:37.622Z,4.96
2019-01-21T13:58:53.634Z,4.93
2019-01-21T14:01:42.413Z,4.90
2019-01-21T14:05:14.488Z,4.80
2019-01-21T14:08:17.000Z,4.74
2019-01-21T14:11:28.195Z,4.57
2019-01-21T14:14:56.666Z,4.50
2019-01-21T14:18:26.032Z,4.34
2019-01-21T14:21:11.494Z,4.25
2019-01-21T14:24:24.321Z,4.12
2019-01-21T14:27:29.045Z,4.14
2019-01-21T14:30:16.380Z,3.98
2019-01-21T14:33:21.998Z,4.01
2019-01-21T14:36:21.005Z,4.07
2019-01-21T14:39:23.023Z,4.03
2019-01-21T14:42:38.911Z,3.99
2019-01-21T14:45:59.339Z,3.98
2019-01-21T14:49:04.804Z,3.98
2019-01-21T14:52:23.987Z,3.90
2019-01-21T14:55:35.658Z,3.87
2019-01-21T14:58:54.440Z,3.86
2019-01-21T15:01:51.662Z,3.84
2019-01-21T15:05:02.106Z,3.76
2019-01-21T15:08:14.032Z,3.71
2019-01-21T15:11:22.788Z,3.75
2019-01-21T15:14:32.955Z,3.76
2019-01-21T15:17:41.024Z,3.78
2019-01-21T15:20:44.166Z,3.76
2019-01-21T15:24:07.180Z,3.71
2019-01-21T15:26:54.454Z,3.65
2019-01-21T15:30:15.657Z,3.65
2019-01-21T15:33:22.601Z,3.67
2019-01-21T15:36:41.068Z,3.58
2019-01-21T15:39:26.473Z,3.55
2019-01-21T15:42:47.239Z,3.56
2019-01-21T15:45:57.815Z,3.57
2019-01-21T15:49:04.296Z,3.47
2019-01-21T15:52:21.206Z,3.44
2019-01-21T15:55:13.255Z,3.42
2019-01-21T15:57:53.639Z,3.14
2019-01-21T16:00:53.911Z,3.33
2019-01-21T16:04:01.927Z,3.34
2019-01-21T16:07:15.657Z,3.44
2019-01-21T16:10:18.025Z,3.47
2019-01-21T16:13:08.906Z,3.47
2019-01-21T16:16:17.563Z,3.46
2019-01-21T16:19:12.657Z,3.52
2019-01-21T16:22:40.499Z,3.49
2019-01-21T16:25:57.240Z,3.36
2019-01-21T16:29:08.415Z,3.48
2019-01-21T16:31:49.949Z,3.48
2019-01-21T16:34:58.511Z,3.48
2019-01-21T16:38:21.875Z,3.44
2019-01-21T16:41:08.249Z,3.48
2019-01-21T16:43:52.843Z,3.47
2019-01-21T16:46:26.839Z,3.40
2019-01-21T16:49:00.590Z,3.39
2019-01-21T16:51:34.749Z,3.48
2019-01-21T16:54:08.519Z,3.51
2019-01-21T16:56:42.693Z,3.56
2019-01-21T16:59:17.241Z,3.60
2019-01-21T17:01:52.193Z,3.58
2019-01-21T17:04:25.319Z,3.43
2019-01-21T17:06:58.853Z,3.52
2019-01-21T17:09:32.655Z,3.61
2019-01-21T17:12:06.495Z,3.55
2019-01-21T17:14:41.073Z,3.58
2019-01-21T17:17:14.698Z,3.60
2019-01-21T17:19:48.397Z,3.57
2019-01-21T17:22:22.017Z,3.63
2019-01-21T17:24:55.482Z,3.68
2019-01-21T17:27:28.841Z,3.69
2019-01-21T17:30:02.269Z,3.71
2019-01-21T17:32:35.833Z,3.76
2019-01-21T17:35:10.050Z,3.65
2019-01-21T17:37:43.753Z,3.71
2019-01-21T17:40:22.037Z,3.79
2019-01-21T17:42:56.393Z,3.79
2019-01-21T17:45:30.333Z,3.78
2019-01-21T17:48:04.243Z,3.78
2019-01-21T17:50:40.244Z,3.73
2019-01-21T17:53:14.718Z,3.76
2019-01-21T17:55:49.267Z,3.74
2019-01-21T17:58:23.086Z,3.75
2019-01-21T18:00:57.604Z,3.68
2019-01-21T18:03:34.482Z,3.73
2019-01-21T18:06:07.728Z,3.77
2019-01-21T18:08:40.623Z,3.75
2019-01-21T18:11:14.249Z,3.54
2019-01-21T18:13:49.204Z,3.18
2019-01-21T18:16:22.771Z,3.29
2019-01-21T18:18:56.361Z,3.09
2019-01-21T18:21:30.740Z,3.30
2019-01-21T18:24:05.113Z,3.30
2019-01-21T18:26:38.273Z,3.20
2019-01-21T18:29:11.723Z,3.03
2019-01-21T18:31:46.149Z,2.83
2019-01-21T18:34:20.132Z,3.08
2019-01-21T18:36:54.154Z,3.18
2019-01-21T18:39:41.050Z,3.22
2019-01-21T18:42:26.044Z,3.28
2019-01-21T18:45:10.322Z,3.23
2019-01-21T18:47:48.067Z,3.32
2019-01-21T18:50:21.696Z,3.27
2019-01-21T18:52:55.615Z,3.38
2019-01-21T18:55:29.424Z,3.07
2019-01-21T18:58:03.333Z,3.00
2019-01-21T19:00:37.497Z,2.87
2019-01-21T19:03:10.634Z,3.03
2019-01-21T19:05:43.959Z,3.13
2019-01-21T19:08:17.509Z,3.05
2019-01-21T19:10:51.327Z,3.02
2019-01-21T19:13:24.975Z,2.96
2019-01-21T19:15:58.551Z,3.06
2019-01-21T19:18:32.460Z,3.17
2019-01-21T19:21:06.587Z,3.11
2019-01-21T19:23:40.339Z,3.01
2019-01-21T19:26:14.041Z,3.14
2019-01-21T19:28:47.869Z,2.90
2019-01-21T19:31:22.133Z,2.95
2019-01-21T19:33:56.461Z,3.13
2019-01-21T19:36:29.950Z,3.14
2019-01-21T19:39:04.107Z,3.26
2019-01-21T19:41:43.733Z,3.24
2019-01-21T19:44:17.875Z,3.14
2019-01-21T19:46:51.466Z,2.98
2019-01-21T19:49:25.473Z,3.13
2019-01-21T19:52:00.384Z,3.14
2019-01-21T19:54:34.128Z,3.18
2019-01-21T19:57:07.801Z,3.23
2019-01-21T19:59:41.819Z,3.21
2019-01-21T20:02:15.963Z,3.18
2019-01-21T20:04:49.583Z,3.23
2019-01-21T20:07:28.434Z,3.32
2019-01-21T20:10:02.714Z,3.27
2019-01-21T20:12:36.330Z,3.26
2019-01-21T20:15:11.687Z,3.34
2019-01-21T20:17:46.364Z,3.40
2019-01-21T20:20:25.391Z,3.29
2019-01-21T20:22:58.926Z,3.29
2019-01-21T20:25:33.028Z,3.09
2019-01-21T20:28:07.103Z,3.22
2019-01-21T20:30:40.927Z,3.15
2019-01-21T20:33:15.145Z,3.22
2019-01-21T20:35:48.615Z,3.19
2019-01-21T20:38:22.230Z,3.00
2019-01-21T20:40:58.321Z,3.05
2019-01-21T20:43:31.810Z,3.11
2019-01-21T20:46:04.883Z,3.26
2019-01-21T20:48:37.865Z,3.26
2019-01-21T20:51:11.433Z,3.06
2019-01-21T20:53:45.215Z,2.62
2019-01-21T20:56:19.278Z,2.87
2019-01-21T20:58:53.112Z,2.98
2019-01-21T21:01:26.655Z,3.02
2019-01-21T21:04:00.489Z,3.00
2019-01-21T21:06:33.883Z,3.05
2019-01-21T21:09:10.129Z,3.11
2019-01-21T21:11:43.675Z,3.16
2019-01-21T21:14:17.557Z,3.20
2019-01-21T21:16:52.182Z,3.11
2019-01-21T21:19:25.957Z,3.18
2019-01-21T21:21:58.947Z,3.27
2019-01-21T21:24:32.670Z,3.25
2019-01-21T21:27:06.630Z,3.24
2019-01-21T21:29:40.781Z,3.08
2019-01-21T21:32:14.884Z,3.19
2019-01-21T21:34:48.744Z,3.25
2019-01-21T21:37:22.455Z,3.28
2019-01-21T21:39:56.849Z,3.16
2019-01-21T21:42:43.021Z,2.97
2019-01-21T21:45:24.846Z,2.92
2019-01-21T21:48:01.114Z,3.01
2019-01-21T21:50:35.249Z,3.02
2019-01-21T21:53:08.675Z,3.06
2019-01-21T21:55:43.085Z,3.10
2019-01-21T21:58:16.391Z,3.11
2019-01-21T22:00:49.945Z,3.17
2019-01-21T22:03:22.867Z,3.14
2019-01-21T22:05:56.315Z,3.16
2019-01-21T22:08:29.928Z,3.20
2019-01-21T22:11:03.472Z,3.21
2019-01-21T22:13:43.550Z,3.24
2019-01-21T22:16:17.084Z,3.27
2019-01-21T22:18:50.648Z,3.12
2019-01-21T22:21:24.298Z,3.13
2019-01-21T22:23:58.126Z,3.27
2019-01-21T22:26:31.961Z,3.26
2019-01-21T22:29:05.481Z,3.26
2019-01-21T22:31:38.864Z,3.25
2019-01-21T22:34:11.956Z,3.29
2019-01-21T22:36:45.630Z,3.38
2019-01-21T22:39:18.577Z,3.24
2019-01-21T22:42:05.142Z,3.31
2019-01-21T22:44:49.368Z,3.13
2019-01-21T22:47:31.469Z,3.09
2019-01-21T22:50:05.155Z,3.17
2019-01-21T22:52:41.957Z,3.16
2019-01-21T22:55:14.406Z,3.18
2019-01-21T22:57:48.977Z,3.25
2019-01-21T23:00:44.674Z,3.27
2019-01-21T23:03:18.639Z,3.22
2019-01-21T23:05:52.440Z,3.24
2019-01-21T23:08:26.059Z,3.37
2019-01-21T23:10:59.283Z,3.28
2019-01-21T23:13:30.907Z,3.35
2019-01-21T23:16:04.325Z,3.33
2019-01-21T23:18:37.399Z,3.30
2019-01-21T23:21:10.031Z,3.25
2019-01-21T23:23:43.605Z,3.26
2019-01-21T23:26:18.055Z,3.32
2019-01-21T23:28:51.619Z,3.27
2019-01-21T23:31:23.831Z,3.26
2019-01-21T23:33:57.091Z,3.40
2019-01-21T23:36:30.214Z,3.23
2019-01-21T23:39:05.137Z,3.14
2019-01-21T23:41:51.424Z,3.20
2019-01-21T23:44:37.734Z,3.22
2019-01-21T23:47:22.327Z,3.23
2019-01-21T23:50:04.374Z,3.22
2019-01-21T23:52:37.714Z,3.25
2019-01-21T23:55:10.688Z,3.24
2019-01-21T23:57:43.953Z,3.30
